River Haven, North Carolina
Current Conditions -  °F | °C
As of 10:55 AM on Wednesday 26 Nov 2014 (Local Time) from KVUJ Reporting Station
Moderate Rain Moderate Rain  
Wind Chill: 41°   Ceiling: 1200
Heat Index: 45°   Visibility: 10mi
Dew Point: 44°   Wind: 6mph
Humidity: 97%   Direction: 320°NW
Pressure: 30.01"   Gusts: NA
Location:  35.3503°N, 80.2174°W
Report Text: KVUJ 261555Z AUTO 32005KT 10SM RA BKN012 BKN018 OVC065 07/07 A3001 RMK AO2 P0002 T00700066
Loading
Personal Weather Stations






























Interactive Weather Map New forecast layout! Learn more

10-Day Weather Forecast

Advertisements
Track Severe Weather on mobile